Pall Mall, TN (38577)

12:55 PM CDT on March 28, 2017 (GMT -0500)
Highlands @ BSF | | Change Station

Elev 1637 ft 36.49 °N, 84.86 °W | Updated 36 seconds ago

Overcast
Overcast
61.0 °F
Feels Like 61.0 °F
N
3.0
Wind Variable Wind from WSW

Today
High -- | Low -- °F
--% Chance of Precip.
Yesterday
High -- | Low -- °F
Precip. -- in
Pressure 30.03 in
Visibility 10.0 miles
Clouds Mostly Cloudy 2400 ft
Overcast 3300 ft
Dew Point 57 °F
Humidity 88%
Rainfall 0.00 in
Snow Depth Not available.
6:31 AM 6:58 PM
New Moon, 1% visible
METAR KSME 281735Z AUTO 26005KT 10SM BKN024 OVC033 15/11 A3003 RMK AO2
Pressure 30.03 in
Visibility 10.0 miles
Clouds Mostly Cloudy 2400 ft
Overcast 3300 ft
Dew Point 57 °F
Humidity 88%
Rainfall 0.00 in
Snow Depth Not available.
6:31 AM 6:58 PM
New Moon, 1% visible
METAR KSME 281735Z AUTO 26005KT 10SM BKN024 OVC033 15/11 A3003 RMK AO2

Get Severe Weather Alerts

Thanks for signing up!

Be on the lookout for a verification email in your inbox.

You'll start receiving the daily forecast at 8 AM.

×

10-Day Weather Forecast

Almanac

Astronomy

Mar. 28, 2017 Rise Set
Actual Time
Civil Twilight
Nautical Twilight
Astronomical Twilight
Moon
Length of Visible Light
Length of Day
Tomorrow will be .
, % of the Moon is Illuminated

Today's Extremes

State Highs State Lows

Community

WunderPhotos

Upload Photos

1,962,540 photos uploaded!

WunderBlog® & News

Nearby

Air Quality

  Air Quality AQ Index Pollutant
Not available.

Snow Depth

Station Depth Elevation

Earthquake Activity

City Distance Mag. Time & Date
Minimum magnitude displayed is 2.5.

Earthquake Activity

City Distance Mag. Time & Date
Minimum magnitude displayed is 2.5.

Coastal Water Temperatures

Place Temperature

Stations

Nearby Weather Stations

Station Location Temp. Windchill Dew Point Humidity Wind Precip. Elev Updated Type
                   

Watches & Warnings

There are currently no watches in effect.